Time;durP1;ratioP1;P1;durP2;ratioP2;P2;SDS_P1;SDS_P2;PMS_P1;PMS_P2;Temp;Humidity;BMP_temperature;BMP_pressure;BME280_temperature;BME280_humidity;BME280_pressure;Samples;Min_cycle;Max_cycle;Signal;HPM_P1;HPM_P2
2023/05/02 00:01:18;;;;;;;11.38;5.53;;;6.80;99.90;;;;;;4940995;28;20052;-76
2023/05/02 00:03:45;;;;;;;11.65;5.78;;;6.80;99.90;;;;;;4928749;29;20867;-66
2023/05/02 00:06:12;;;;;;;12.70;5.70;;;6.80;99.90;;;;;;4921741;29;20534;-63
2023/05/02 00:08:39;;;;;;;9.55;6.05;;;6.80;99.90;;;;;;4940854;28;20055;-69
2023/05/02 00:11:06;;;;;;;10.73;6.05;;;6.80;99.90;;;;;;4946559;28;20070;-69
2023/05/02 00:13:33;;;;;;;12.10;5.70;;;6.80;99.90;;;;;;4936788;28;20481;-67
2023/05/02 00:16:00;;;;;;;9.70;5.55;;;6.80;99.90;;;;;;4940959;28;20170;-71
2023/05/02 00:18:27;;;;;;;9.52;6.35;;;6.80;99.90;;;;;;4925882;29;20063;-65
2023/05/02 00:20:55;;;;;;;10.18;6.43;;;6.80;99.90;;;;;;4939256;29;20138;-66
2023/05/02 00:23:22;;;;;;;10.77;5.05;;;6.80;99.90;;;;;;4937910;28;20086;-72
2023/05/02 00:25:49;;;;;;;7.50;5.18;;;6.80;99.90;;;;;;4951862;28;20057;-66
2023/05/02 00:28:17;;;;;;;7.65;5.10;;;6.80;99.90;;;;;;4931516;28;20142;-66
2023/05/02 00:30:45;;;;;;;12.20;6.30;;;6.80;99.90;;;;;;4948109;28;20077;-77
2023/05/02 00:33:13;;;;;;;14.45;6.93;;;6.80;99.90;;;;;;4936998;28;20043;-66
2023/05/02 00:35:40;;;;;;;8.82;5.28;;;6.80;99.90;;;;;;4946545;28;20058;-67
2023/05/02 00:38:08;;;;;;;11.05;6.38;;;6.80;99.90;;;;;;4947774;28;20047;-67
2023/05/02 00:40:46;;;;;;;8.35;4.97;;;6.80;99.90;;;;;;4953242;28;20094;-66
2023/05/02 00:43:14;;;;;;;11.45;5.55;;;6.80;99.90;;;;;;4940286;28;20517;-67
2023/05/02 00:45:42;;;;;;;11.25;5.75;;;6.80;99.90;;;;;;4936073;28;20055;-67
2023/05/02 00:48:10;;;;;;;11.98;5.80;;;6.80;99.90;;;;;;4938857;28;20055;-69
2023/05/02 00:50:39;;;;;;;14.60;5.93;;;6.80;99.90;;;;;;4950087;28;20050;-63
2023/05/02 00:53:07;;;;;;;10.55;6.40;;;6.80;99.90;;;;;;4940242;29;20055;-66
2023/05/02 00:55:35;;;;;;;12.95;5.75;;;6.80;99.90;;;;;;4940321;28;20109;-69
2023/05/02 00:58:05;;;;;;;10.95;5.32;;;6.80;99.90;;;;;;4938064;28;20047;-65
2023/05/02 01:00:42;;;;;;;12.93;6.70;;;6.80;99.90;;;;;;4949628;28;20110;-62
2023/05/02 01:03:30;;;;;;;11.60;5.90;;;6.80;99.90;;;;;;4945270;28;20481;-65
2023/05/02 01:06:34;;;;;;;12.52;6.35;;;6.80;99.90;;;;;;4939904;28;20055;-64
2023/05/02 01:09:09;;;;;;;10.27;5.95;;;6.80;99.90;;;;;;4958178;28;20050;-64
2023/05/02 01:11:55;;;;;;;10.30;6.82;;;6.80;99.90;;;;;;4943216;28;20142;-64
2023/05/02 01:14:24;;;;;;;8.45;5.88;;;6.80;99.90;;;;;;4941817;28;20058;-64
2023/05/02 01:16:52;;;;;;;9.38;6.45;;;6.80;99.90;;;;;;4940474;28;20074;-63
2023/05/02 01:19:28;;;;;;;11.35;5.80;;;6.80;99.90;;;;;;4933210;28;20413;-65
2023/05/02 01:21:56;;;;;;;11.23;5.97;;;6.90;99.90;;;;;;4945040;28;20242;-69
2023/05/02 01:24:28;;;;;;;13.77;7.38;;;6.90;99.90;;;;;;4961729;28;20060;-67
2023/05/02 01:27:23;;;;;;;5.43;4.68;;;6.90;99.90;;;;;;4951488;28;20063;-65
2023/05/02 01:29:51;;;;;;;11.45;6.28;;;6.90;99.90;;;;;;4950482;28;20051;-70
2023/05/02 01:32:22;;;;;;;11.25;6.30;;;6.90;99.90;;;;;;4952652;28;20138;-67
2023/05/02 01:34:51;;;;;;;;;;;6.90;99.90;;;;;;4944162;28;20098;-67
2023/05/02 01:37:20;;;;;;;7.82;5.70;;;6.90;99.90;;;;;;4956182;28;19928;-70
2023/05/02 01:39:48;;;;;;;17.80;6.85;;;7.00;99.90;;;;;;4940623;28;20055;-65
2023/05/02 01:42:16;;;;;;;14.43;7.93;;;7.00;99.90;;;;;;4925253;28;20142;-64
2023/05/02 01:44:45;;;;;;;14.55;8.05;;;7.00;99.90;;;;;;4942827;28;20126;-70
2023/05/02 01:47:13;;;;;;;11.98;6.35;;;7.00;99.90;;;;;;4933820;28;20056;-70
2023/05/02 01:49:42;;;;;;;9.15;5.57;;;7.00;99.90;;;;;;4937042;28;20086;-70
2023/05/02 01:52:11;;;;;;;10.82;6.15;;;7.00;99.90;;;;;;4943870;28;20573;-63
2023/05/02 01:54:41;;;;;;;13.38;6.28;;;6.90;99.90;;;;;;4954141;28;20051;-64
2023/05/02 01:57:11;;;;;;;10.45;5.72;;;6.90;99.90;;;;;;4942789;28;20142;-62
2023/05/02 01:59:40;;;;;;;9.43;6.97;;;6.90;99.90;;;;;;4958777;28;20557;-64
2023/05/02 02:02:10;;;;;;;5.90;5.25;;;7.00;99.90;;;;;;4941130;28;20090;-65
2023/05/02 02:04:39;;;;;;;15.15;6.55;;;7.00;99.90;;;;;;4942775;28;20413;-63
2023/05/02 02:07:11;;;;;;;11.80;6.43;;;7.10;99.90;;;;;;4951751;28;20051;-68
2023/05/02 02:09:39;;;;;;;16.70;7.47;;;7.10;99.90;;;;;;4945640;28;20055;-68
2023/05/02 02:12:22;;;;;;;11.02;5.68;;;7.20;99.90;;;;;;4935512;28;20058;-65
2023/05/02 02:15:27;;;;;;;11.02;6.05;;;7.20;99.90;;;;;;4937961;28;20134;-72
2023/05/02 02:17:56;;;;;;;12.63;7.28;;;7.30;99.90;;;;;;4941295;28;20081;-64
2023/05/02 02:20:25;;;;;;;10.98;6.65;;;7.40;99.90;;;;;;4950270;28;20050;-70
2023/05/02 02:22:53;;;;;;;8.63;6.47;;;7.50;99.90;;;;;;4928846;28;20051;-64
2023/05/02 02:25:20;;;;;;;10.07;6.32;;;7.40;99.90;;;;;;4933891;28;20054;-76
2023/05/02 02:27:48;;;;;;;9.35;7.57;;;7.50;99.90;;;;;;4927537;29;20055;-66
2023/05/02 02:30:15;;;;;;;11.73;6.53;;;7.40;99.90;;;;;;4920694;29;20458;-65
2023/05/02 02:32:42;;;;;;;10.40;7.00;;;7.40;99.90;;;;;;4958011;28;20055;-64
2023/05/02 02:35:09;;;;;;;14.23;7.88;;;7.30;99.90;;;;;;4950285;28;20540;-70
2023/05/02 02:37:57;;;;;;;9.70;7.45;;;7.30;99.90;;;;;;4924218;29;20044;-69
2023/05/02 02:40:55;;;;;;;8.85;6.00;;;7.20;99.90;;;;;;4922102;28;20062;-72
2023/05/02 02:43:37;;;;;;;15.82;8.45;;;7.20;99.90;;;;;;4940540;28;20150;-67
2023/05/02 02:46:22;;;;;;;9.77;7.20;;;7.10;99.90;;;;;;4959622;28;20386;-65
2023/05/02 02:49:24;;;;;;;15.18;8.77;;;7.00;99.90;;;;;;4939457;28;20145;-64
2023/05/02 02:52:10;;;;;;;12.02;7.65;;;7.00;99.90;;;;;;4878745;29;20067;-62
2023/05/02 02:54:45;;;;;;;12.75;8.77;;;7.00;99.90;;;;;;4935419;28;20660;-63
2023/05/02 02:57:46;;;;;;;13.90;8.75;;;6.90;99.90;;;;;;4943987;28;20134;-62
2023/05/02 03:00:20;;;;;;;16.38;8.55;;;6.90;99.90;;;;;;4946075;28;20062;-62
2023/05/02 03:02:47;;;;;;;13.48;8.35;;;6.90;99.90;;;;;;4943318;28;20055;-63
2023/05/02 03:05:15;;;;;;;18.10;8.70;;;6.90;99.90;;;;;;4949043;28;20063;-68
2023/05/02 03:07:42;;;;;;;10.55;8.50;;;6.80;99.90;;;;;;4951801;28;20130;-63
2023/05/02 03:10:10;;;;;;;14.75;9.30;;;6.80;99.90;;;;;;4956328;28;20058;-63
2023/05/02 03:12:42;;;;;;;17.88;8.50;;;6.90;99.90;;;;;;4949466;28;20051;-72
2023/05/02 03:15:22;;;;;;;14.18;7.90;;;6.80;99.90;;;;;;4949617;28;20143;-70
2023/05/02 03:17:50;;;;;;;18.98;8.55;;;6.80;99.90;;;;;;4963567;28;20083;-71
2023/05/02 03:20:17;;;;;;;12.10;8.82;;;6.80;99.90;;;;;;4943970;28;20424;-63
2023/05/02 03:22:44;;;;;;;16.92;9.13;;;6.80;99.90;;;;;;4951898;28;20075;-67
2023/05/02 03:25:11;;;;;;;12.15;8.02;;;6.80;99.90;;;;;;4943774;28;20505;-73
2023/05/02 03:27:43;;;;;;;16.75;7.85;;;6.80;99.90;;;;;;4957662;28;20052;-65
2023/05/02 03:30:11;;;;;;;17.02;9.65;;;6.80;99.90;;;;;;4966391;28;20498;-69
2023/05/02 03:32:38;;;;;;;12.57;8.50;;;6.80;99.90;;;;;;4941263;28;20051;-68
2023/05/02 03:35:05;;;;;;;17.73;8.77;;;6.80;99.90;;;;;;4951586;28;20083;-63
2023/05/02 03:37:37;;;;;;;11.77;8.88;;;6.80;99.90;;;;;;4963079;28;20059;-63
2023/05/02 03:40:05;;;;;;;10.85;8.32;;;6.80;99.90;;;;;;4951031;28;20082;-64
2023/05/02 03:42:42;;;;;;;12.95;8.45;;;6.90;99.90;;;;;;4956358;28;20138;-63
2023/05/02 03:45:21;;;;;;;11.50;7.03;;;6.90;99.90;;;;;;4964841;28;20315;-69
2023/05/02 03:47:50;;;;;;;9.93;7.30;;;7.00;99.90;;;;;;4954847;28;20111;-64
2023/05/02 03:50:18;;;;;;;15.73;8.63;;;7.00;99.90;;;;;;4953205;28;20063;-64
2023/05/02 03:52:47;;;;;;;13.57;8.67;;;7.00;99.90;;;;;;4957572;28;20043;-63
2023/05/02 03:55:17;;;;;;;12.18;7.57;;;7.00;99.90;;;;;;4940879;28;20385;-68
2023/05/02 03:57:44;;;;;;;10.63;7.38;;;6.90;99.90;;;;;;4938533;28;20071;-62
2023/05/02 04:00:12;;;;;;;17.95;7.88;;;7.00;99.90;;;;;;4961476;28;20048;-63
2023/05/02 04:02:46;;;;;;;15.25;8.25;;;7.00;99.90;;;;;;4946307;28;20403;-66
2023/05/02 04:05:18;;;;;;;15.90;9.15;;;7.00;99.90;;;;;;4962834;28;20047;-63
2023/05/02 04:07:47;;;;;;;14.52;10.43;;;7.00;99.90;;;;;;4963441;28;20437;-65
2023/05/02 04:10:16;;;;;;;15.60;8.35;;;7.00;99.90;;;;;;4963404;28;20062;-63
2023/05/02 04:12:50;;;;;;;14.43;7.65;;;7.00;99.90;;;;;;4955645;28;20043;-65
2023/05/02 04:15:18;;;;;;;16.40;7.75;;;7.00;99.90;;;;;;4945218;28;20048;-67
2023/05/02 04:17:46;;;;;;;11.15;7.40;;;7.10;99.90;;;;;;4947463;28;20064;-65
2023/05/02 04:20:14;;;;;;;16.40;8.70;;;7.20;99.90;;;;;;4966192;28;20078;-66
2023/05/02 04:22:46;;;;;;;16.48;9.50;;;7.20;99.90;;;;;;4946636;28;20059;-62
2023/05/02 04:25:14;;;;;;;11.38;7.75;;;7.20;99.90;;;;;;4964947;28;20417;-61
2023/05/02 04:27:42;;;;;;;23.73;9.32;;;7.10;99.90;;;;;;4944507;28;20067;-65
2023/05/02 04:30:12;;;;;;;11.27;8.20;;;7.00;99.90;;;;;;4959837;28;20051;-61
2023/05/02 04:32:42;;;;;;;;;;;6.80;99.90;;;;;;4958152;28;20138;-61
2023/05/02 04:35:10;;;;;;;14.07;7.10;;;6.80;99.90;;;;;;4962069;28;19930;-67
2023/05/02 04:37:37;;;;;;;13.13;6.55;;;6.70;99.90;;;;;;4962688;28;20422;-69
2023/05/02 04:40:05;;;;;;;8.45;4.38;;;6.60;99.90;;;;;;4957226;28;20082;-67
2023/05/02 04:42:32;;;;;;;10.52;3.40;;;6.50;99.90;;;;;;4946063;28;20490;-67
2023/05/02 04:45:10;;;;;;;5.13;2.20;;;6.50;99.90;;;;;;4949227;28;20109;-80
2023/05/02 04:47:38;;;;;;;5.10;2.75;;;6.40;99.90;;;;;;4946671;28;20490;-65
2023/05/02 04:50:06;;;;;;;4.20;1.42;;;6.40;99.90;;;;;;4959982;28;20047;-63
2023/05/02 04:52:34;;;;;;;3.28;1.15;;;6.30;99.90;;;;;;4950319;28;20059;-73
2023/05/02 04:55:01;;;;;;;3.88;1.75;;;6.20;99.90;;;;;;4959997;28;20051;-66
2023/05/02 04:57:28;;;;;;;3.83;1.05;;;6.30;99.90;;;;;;4948891;28;20130;-64
2023/05/02 04:59:58;;;;;;;1.00;0.90;;;6.20;99.90;;;;;;4959972;28;20211;-63
2023/05/02 05:02:26;;;;;;;1.05;0.60;;;6.20;99.90;;;;;;4957719;28;20465;-64
2023/05/02 05:04:55;;;;;;;3.78;1.00;;;6.10;99.90;;;;;;4956528;28;20063;-63
2023/05/02 05:07:22;;;;;;;2.10;0.90;;;6.10;99.90;;;;;;4950284;28;20062;-73
2023/05/02 05:09:51;;;;;;;2.95;1.65;;;6.10;99.90;;;;;;4956281;28;20047;-67
2023/05/02 05:12:20;;;;;;;1.40;0.77;;;6.00;99.90;;;;;;4943733;28;20051;-67
2023/05/02 05:14:49;;;;;;;2.33;0.73;;;6.00;99.90;;;;;;4928099;29;20040;-63
2023/05/02 05:17:17;;;;;;;0.43;0.30;;;6.00;99.90;;;;;;4930036;29;20056;-63
2023/05/02 05:19:44;;;;;;;2.70;1.17;;;5.90;99.90;;;;;;4941545;28;20059;-67
2023/05/02 05:22:11;;;;;;;4.80;1.73;;;5.90;99.90;;;;;;4950704;28;20055;-70
2023/05/02 05:24:38;;;;;;;2.22;1.65;;;5.80;99.90;;;;;;4962583;28;20043;-63
2023/05/02 05:27:05;;;;;;;1.05;0.98;;;5.70;99.90;;;;;;4940189;28;20056;-63
2023/05/02 05:29:32;;;;;;;4.68;1.27;;;5.60;99.90;;;;;;4934367;28;20463;-63
2023/05/02 05:31:59;;;;;;;2.30;0.77;;;5.50;99.90;;;;;;4932370;28;20048;-64
2023/05/02 05:34:26;;;;;;;0.80;0.50;;;5.50;99.90;;;;;;4958416;28;20051;-63
2023/05/02 05:36:57;;;;;;;6.00;0.88;;;5.40;99.90;;;;;;4958387;28;20066;-68
2023/05/02 05:39:24;;;;;;;3.53;1.33;;;5.40;99.90;;;;;;4965222;28;20051;-65
2023/05/02 05:41:53;;;;;;;4.05;0.57;;;5.40;99.90;;;;;;4949220;28;20059;-66
2023/05/02 05:44:21;;;;;;;2.92;0.22;;;5.40;99.90;;;;;;4952262;28;20057;-70
2023/05/02 05:46:48;;;;;;;1.60;0.63;;;5.30;99.90;;;;;;4965513;28;20051;-64
2023/05/02 05:49:16;;;;;;;1.20;1.20;;;5.30;99.90;;;;;;4949045;28;20051;-68
2023/05/02 05:51:46;;;;;;;0.70;0.25;;;5.30;99.90;;;;;;4955666;28;20490;-66
2023/05/02 05:54:16;;;;;;;2.55;0.30;;;5.30;99.90;;;;;;4946937;29;20054;-68
2023/05/02 05:56:43;;;;;;;1.33;0.13;;;5.20;99.90;;;;;;4960740;28;20058;-68
2023/05/02 05:59:16;;;;;;;1.80;0.60;;;5.20;99.90;;;;;;4946175;28;20502;-64
2023/05/02 06:01:43;;;;;;;5.07;0.50;;;5.20;99.90;;;;;;4946415;28;20043;-63
2023/05/02 06:04:11;;;;;;;0.82;0.43;;;5.20;99.90;;;;;;4936986;28;20477;-66
2023/05/02 06:06:41;;;;;;;0.30;0.20;;;5.20;99.90;;;;;;4943822;28;20047;-66
2023/05/02 06:09:08;;;;;;;1.02;0.32;;;5.20;99.90;;;;;;4950322;28;20058;-66
2023/05/02 06:11:37;;;;;;;1.10;0.55;;;5.20;99.90;;;;;;4943428;28;20559;-74
2023/05/02 06:14:04;;;;;;;0.60;0.35;;;5.20;99.90;;;;;;4947162;28;20070;-69
2023/05/02 06:16:31;;;;;;;3.65;0.50;;;5.20;99.90;;;;;;4950978;28;20107;-64
2023/05/02 06:18:58;;;;;;;2.67;0.60;;;5.30;99.90;;;;;;4946753;28;20405;-65
2023/05/02 06:21:25;;;;;;;4.85;0.70;;;5.30;99.90;;;;;;4952904;28;20102;-68
2023/05/02 06:23:52;;;;;;;0.68;0.57;;;5.20;99.90;;;;;;4943931;28;20118;-69
2023/05/02 06:26:20;;;;;;;2.15;1.05;;;5.20;99.90;;;;;;4939927;28;20614;-65
2023/05/02 06:28:47;;;;;;;1.13;0.65;;;5.20;99.90;;;;;;4962950;28;20421;-64
2023/05/02 06:31:15;;;;;;;2.10;0.70;;;5.20;99.90;;;;;;4945742;28;20077;-67
2023/05/02 06:33:42;;;;;;;2.40;0.50;;;5.20;99.90;;;;;;4942294;28;20076;-70
2023/05/02 06:36:09;;;;;;;3.05;0.60;;;5.10;99.90;;;;;;4943285;28;20052;-64
2023/05/02 06:38:35;;;;;;;0.30;0.30;;;5.10;99.90;;;;;;4942966;28;20150;-67
2023/05/02 06:41:02;;;;;;;2.05;0.65;;;5.10;99.90;;;;;;4932510;29;20055;-71
2023/05/02 06:43:29;;;;;;;1.10;0.60;;;5.20;99.90;;;;;;4945948;28;20505;-63
2023/05/02 06:45:57;;;;;;;0.98;0.52;;;5.10;99.90;;;;;;4951293;28;20516;-64
2023/05/02 06:48:24;;;;;;;1.95;0.75;;;5.10;99.90;;;;;;4947813;28;20081;-70
2023/05/02 06:50:52;;;;;;;0.15;0.15;;;5.00;99.90;;;;;;4940753;28;20047;-64
2023/05/02 06:53:19;;;;;;;4.28;1.60;;;5.00;99.90;;;;;;4943721;28;20051;-69
2023/05/02 06:55:48;;;;;;;1.48;0.60;;;5.00;99.90;;;;;;4949623;28;20044;-64
2023/05/02 06:58:15;;;;;;;0.20;0.13;;;5.00;99.90;;;;;;4949010;28;20141;-67
2023/05/02 07:00:42;;;;;;;0.85;0.40;;;4.90;99.90;;;;;;4948197;28;20111;-70
2023/05/02 07:03:10;;;;;;;1.02;0.47;;;5.00;99.90;;;;;;4933885;28;20073;-64
2023/05/02 07:05:37;;;;;;;2.30;0.60;;;5.00;99.90;;;;;;4935423;28;20076;-69
2023/05/02 07:08:04;;;;;;;1.42;0.80;;;5.10;99.90;;;;;;4942697;28;20150;-73
2023/05/02 07:10:31;;;;;;;1.02;0.17;;;5.10;99.90;;;;;;4950985;28;20095;-69
2023/05/02 07:12:58;;;;;;;1.42;0.52;;;5.00;99.90;;;;;;4940160;28;20044;-64
2023/05/02 07:15:25;;;;;;;0.65;0.30;;;5.10;99.90;;;;;;4941710;28;20057;-74
2023/05/02 07:17:52;;;;;;;1.35;0.30;;;5.10;99.90;;;;;;4948564;28;20071;-66
2023/05/02 07:20:19;;;;;;;2.03;0.50;;;5.10;99.90;;;;;;4958155;28;20051;-63
2023/05/02 07:22:46;;;;;;;2.80;0.32;;;5.10;99.90;;;;;;4941286;28;20512;-67
2023/05/02 07:25:13;;;;;;;0.30;0.10;;;5.20;99.90;;;;;;4947856;28;20055;-63
2023/05/02 07:27:40;;;;;;;0.22;0.22;;;5.20;99.90;;;;;;4944029;28;20202;-64
2023/05/02 07:30:07;;;;;;;1.55;0.90;;;5.20;99.90;;;;;;4947704;28;20054;-64
2023/05/02 07:32:34;;;;;;;2.17;0.52;;;5.20;99.90;;;;;;4948095;28;20078;-66
2023/05/02 07:35:01;;;;;;;1.42;0.40;;;5.20;99.90;;;;;;4946724;28;20058;-69
2023/05/02 07:37:32;;;;;;;0.65;0.50;;;5.30;99.90;;;;;;4949496;28;20051;-63
2023/05/02 07:40:00;;;;;;;1.05;0.50;;;5.30;99.90;;;;;;4946252;28;20534;-66
2023/05/02 07:42:31;;;;;;;1.45;0.98;;;5.20;99.90;;;;;;4941977;28;20064;-69
2023/05/02 07:44:59;;;;;;;1.27;1.15;;;5.20;99.90;;;;;;4949804;28;20058;-67
2023/05/02 07:47:26;;;;;;;2.22;0.93;;;5.20;99.90;;;;;;4948914;28;20110;-70
2023/05/02 07:49:54;;;;;;;6.85;0.95;;;5.20;99.90;;;;;;4948322;28;20055;-66
2023/05/02 07:52:21;;;;;;;1.05;0.60;;;5.30;99.90;;;;;;4949952;28;20055;-71
2023/05/02 07:54:48;;;;;;;1.85;0.82;;;5.30;99.90;;;;;;4948002;28;20221;-63
2023/05/02 07:57:15;;;;;;;4.03;0.50;;;5.40;99.90;;;;;;4944944;28;20058;-69
2023/05/02 07:59:43;;;;;;;6.47;1.42;;;5.40;99.90;;;;;;4943553;28;20142;-64
2023/05/02 08:02:12;;;;;;;0.80;0.70;;;5.50;99.90;;;;;;4945700;28;20537;-69
2023/05/02 08:04:39;;;;;;;3.38;0.68;;;5.50;99.90;;;;;;4945214;28;20049;-64
2023/05/02 08:07:06;;;;;;;4.65;0.73;;;5.50;99.90;;;;;;4942109;28;20174;-66
2023/05/02 08:09:33;;;;;;;2.80;0.65;;;5.50;99.90;;;;;;4938642;28;20394;-63
2023/05/02 08:12:02;;;;;;;5.47;1.48;;;5.50;99.90;;;;;;4941449;28;20513;-68
2023/05/02 08:14:29;;;;;;;5.03;0.80;;;5.40;99.90;;;;;;4947725;28;20106;-63
2023/05/02 08:16:56;;;;;;;3.13;1.20;;;5.40;99.90;;;;;;4939560;28;20792;-64
2023/05/02 08:19:23;;;;;;;2.05;0.50;;;5.40;99.90;;;;;;4942521;28;20134;-66
2023/05/02 08:21:50;;;;;;;2.53;0.60;;;5.40;99.90;;;;;;4959433;28;20079;-66
2023/05/02 08:24:17;;;;;;;2.60;0.50;;;5.40;99.90;;;;;;4943179;28;20485;-63
2023/05/02 08:26:44;;;;;;;3.50;1.00;;;5.40;99.90;;;;;;4940821;28;20075;-67
2023/05/02 08:29:11;;;;;;;2.40;0.63;;;5.40;99.90;;;;;;4933369;28;20122;-66
2023/05/02 08:31:39;;;;;;;4.13;1.58;;;5.40;99.90;;;;;;4945882;28;20063;-67
2023/05/02 08:34:06;;;;;;;4.07;0.90;;;5.50;99.90;;;;;;4943373;28;20095;-64
2023/05/02 08:36:33;;;;;;;4.55;1.17;;;5.50;99.90;;;;;;4944518;28;20063;-64
2023/05/02 08:39:00;;;;;;;1.50;1.08;;;5.40;99.90;;;;;;4930826;28;20393;-66
2023/05/02 08:41:28;;;;;;;2.67;1.00;;;5.30;99.90;;;;;;4942406;28;20051;-65
2023/05/02 08:43:56;;;;;;;1.33;0.95;;;5.20;99.90;;;;;;4947001;28;20063;-64
2023/05/02 08:46:24;;;;;;;3.92;1.20;;;5.10;99.90;;;;;;4952439;28;20059;-66
2023/05/02 08:48:52;;;;;;;0.93;0.70;;;5.10;99.90;;;;;;4950409;28;20050;-64
2023/05/02 08:51:23;;;;;;;1.40;1.00;;;5.10;99.90;;;;;;4947195;28;20151;-65
2023/05/02 08:53:51;;;;;;;;;;;5.10;99.90;;;;;;4950147;28;20147;-67
2023/05/02 08:56:18;;;;;;;2.42;1.27;;;5.10;99.90;;;;;;4947931;28;20325;-69
2023/05/02 08:58:45;;;;;;;1.88;1.50;;;5.20;99.90;;;;;;4950596;28;20142;-66
2023/05/02 09:01:16;;;;;;;1.25;1.10;;;5.30;99.90;;;;;;4945391;28;20047;-63
2023/05/02 09:03:45;;;;;;;2.75;1.88;;;5.50;99.90;;;;;;4948684;28;20111;-69
2023/05/02 09:06:20;;;;;;;2.95;1.08;;;5.50;99.90;;;;;;4948794;28;20043;-64
2023/05/02 09:08:49;;;;;;;1.65;1.05;;;5.60;99.90;;;;;;4944273;28;20054;-73
2023/05/02 09:11:17;;;;;;;1.27;1.10;;;5.80;99.90;;;;;;4949604;28;20049;-67
2023/05/02 09:13:46;;;;;;;1.80;1.00;;;5.90;99.90;;;;;;4959606;28;20118;-73
2023/05/02 09:16:15;;;;;;;5.60;1.55;;;6.00;99.90;;;;;;4945049;28;20047;-64
2023/05/02 09:18:56;;;;;;;1.65;1.40;;;5.90;99.90;;;;;;4947090;28;20055;-67
2023/05/02 09:21:25;;;;;;;3.40;1.23;;;6.00;99.90;;;;;;4946084;28;20053;-68
2023/05/02 09:23:54;;;;;;;2.45;1.45;;;6.00;99.90;;;;;;4946462;28;20134;-67
2023/05/02 09:26:26;;;;;;;2.80;2.38;;;5.90;99.90;;;;;;4942889;28;20169;-65
2023/05/02 09:29:00;;;;;;;2.45;1.52;;;6.00;99.90;;;;;;4944009;28;20059;-71
2023/05/02 09:31:33;;;;;;;2.00;1.60;;;6.10;99.90;;;;;;4944463;28;20055;-66
2023/05/02 09:34:20;;;;;;;3.05;1.70;;;6.30;99.90;;;;;;4941375;28;20062;-66
2023/05/02 09:36:50;;;;;;;3.47;1.50;;;6.40;99.90;;;;;;4945262;28;20051;-66
2023/05/02 09:39:22;;;;;;;1.63;1.35;;;6.30;99.90;;;;;;4947295;28;20073;-67
2023/05/02 09:41:52;;;;;;;2.15;1.70;;;6.10;99.90;;;;;;4943792;28;20125;-67
2023/05/02 09:44:21;;;;;;;3.05;1.40;;;6.20;99.90;;;;;;4943169;28;20125;-66
2023/05/02 09:46:52;;;;;;;2.10;1.40;;;6.10;99.90;;;;;;4943429;28;20055;-66
2023/05/02 09:49:38;;;;;;;4.53;1.42;;;6.10;99.90;;;;;;4936781;28;20047;-67
2023/05/02 09:52:11;;;;;;;4.43;1.52;;;6.00;99.90;;;;;;4937285;28;20059;-69
2023/05/02 09:54:39;;;;;;;4.45;1.58;;;6.10;99.90;;;;;;4940097;28;20047;-66
2023/05/02 09:57:06;;;;;;;2.25;1.42;;;6.10;99.90;;;;;;4941240;28;20464;-64
2023/05/02 09:59:33;;;;;;;4.63;1.50;;;6.10;99.90;;;;;;4939101;28;20138;-69
2023/05/02 10:02:06;;;;;;;1.77;1.00;;;6.20;99.90;;;;;;4942326;28;20497;-67
2023/05/02 10:04:33;;;;;;;3.13;1.20;;;6.00;99.90;;;;;;4934649;28;20066;-64
2023/05/02 10:07:02;;;;;;;3.20;1.13;;;6.10;99.90;;;;;;4939453;28;20051;-64
2023/05/02 10:09:32;;;;;;;1.45;1.00;;;6.10;99.90;;;;;;4939010;28;20052;-68
2023/05/02 10:12:06;;;;;;;1.38;0.90;;;6.00;99.90;;;;;;4940146;28;20548;-68
2023/05/02 10:14:42;;;;;;;1.20;1.00;;;6.10;99.90;;;;;;4942558;28;20481;-64
2023/05/02 10:17:26;;;;;;;1.23;0.95;;;6.20;99.90;;;;;;4941903;28;20061;-64
2023/05/02 10:20:02;;;;;;;1.38;1.00;;;6.40;99.90;;;;;;4942904;28;20051;-66
2023/05/02 10:22:30;;;;;;;2.08;1.17;;;6.50;99.90;;;;;;4942188;28;20062;-66
2023/05/02 10:24:59;;;;;;;1.38;0.77;;;6.60;99.90;;;;;;4943196;28;20455;-63
2023/05/02 10:27:29;;;;;;;3.60;1.27;;;6.50;99.90;;;;;;4941296;28;20102;-65
2023/05/02 10:29:57;;;;;;;2.78;1.08;;;6.60;99.90;;;;;;4941872;28;20289;-68
2023/05/02 10:32:28;;;;;;;3.28;1.23;;;6.50;99.90;;;;;;4925730;28;20059;-70
2023/05/02 10:34:56;;;;;;;2.60;1.23;;;6.40;99.90;;;;;;4926235;29;20499;-65
2023/05/02 10:37:25;;;;;;;3.08;0.88;;;6.50;99.90;;;;;;4929989;28;20047;-68
2023/05/02 10:39:52;;;;;;;2.85;1.05;;;6.40;99.90;;;;;;4941679;28;20051;-66
2023/05/02 10:42:20;;;;;;;2.15;1.08;;;6.50;99.90;;;;;;4938893;28;20161;-66
2023/05/02 10:44:49;;;;;;;2.63;1.20;;;6.70;99.90;;;;;;4940223;28;20806;-64
2023/05/02 10:47:20;;;;;;;2.03;1.63;;;6.90;99.90;;;;;;4923547;28;20154;-70
2023/05/02 10:50:01;;;;;;;2.40;1.27;;;6.90;99.90;;;;;;4931432;28;20105;-63
2023/05/02 10:52:32;;;;;;;4.50;2.30;;;6.70;99.90;;;;;;4942468;28;20054;-65
2023/05/02 10:55:12;;;;;;;7.18;2.72;;;6.80;99.90;;;;;;4935251;28;20055;-65
2023/05/02 10:57:57;;;;;;;5.28;1.98;;;7.00;99.90;;;;;;4918163;29;20069;-66
2023/05/02 11:00:25;;;;;;;4.43;2.08;;;7.20;99.90;;;;;;4931758;28;20535;-68
2023/05/02 11:02:52;;;;;;;2.78;1.77;;;7.10;99.90;;;;;;4943193;28;20054;-63
2023/05/02 11:05:21;;;;;;;1.80;1.67;;;7.10;99.90;;;;;;4939212;28;20087;-64
2023/05/02 11:07:48;;;;;;;2.75;1.80;;;7.10;99.90;;;;;;4940244;28;20707;-75
2023/05/02 11:10:23;;;;;;;4.60;2.13;;;7.10;99.90;;;;;;4934081;28;20613;-63
2023/05/02 11:12:51;;;;;;;6.55;1.83;;;7.00;99.90;;;;;;4937197;28;20081;-64
2023/05/02 11:15:27;;;;;;;4.13;1.83;;;7.10;99.90;;;;;;4927454;28;20059;-66
2023/05/02 11:18:12;;;;;;;2.60;1.55;;;7.00;99.90;;;;;;4925552;28;20044;-64
2023/05/02 11:20:41;;;;;;;3.00;1.42;;;7.20;99.90;;;;;;4938400;28;20848;-66
2023/05/02 11:23:20;;;;;;;1.60;1.38;;;7.40;99.90;;;;;;4937434;28;20543;-73
2023/05/02 11:25:59;;;;;;;3.03;1.55;;;7.50;99.90;;;;;;4942003;28;20080;-65
2023/05/02 11:28:35;;;;;;;2.58;2.35;;;7.60;99.90;;;;;;4942423;28;20062;-68
2023/05/02 11:31:29;;;;;;;4.40;2.15;;;7.50;99.90;;;;;;4940912;28;20047;-69
2023/05/02 11:33:58;;;;;;;4.53;2.15;;;7.40;99.90;;;;;;4944211;28;20051;-64
2023/05/02 11:36:34;;;;;;;1.95;1.55;;;7.50;99.90;;;;;;4942223;28;20644;-67
2023/05/02 11:39:04;;;;;;;4.03;2.65;;;7.40;99.90;;;;;;4938655;28;20090;-66
2023/05/02 11:41:40;;;;;;;6.40;2.13;;;7.30;99.90;;;;;;4945881;28;20051;-64
2023/05/02 11:44:08;;;;;;;5.28;2.45;;;7.40;99.90;;;;;;4944730;28;20106;-64
2023/05/02 11:46:39;;;;;;;6.63;2.65;;;7.40;99.90;;;;;;4942928;28;20561;-67
2023/05/02 11:49:07;;;;;;;4.95;1.50;;;7.60;99.90;;;;;;4948223;28;20051;-66
2023/05/02 11:51:35;;;;;;;8.33;1.67;;;7.90;99.90;;;;;;4939944;28;20090;-74
2023/05/02 11:54:02;;;;;;;5.90;1.92;;;8.00;99.90;;;;;;4944260;28;20324;-67
2023/05/02 11:56:30;;;;;;;4.68;1.10;;;8.00;99.90;;;;;;4940997;28;20052;-65
2023/05/02 11:59:02;;;;;;;7.57;1.73;;;8.10;99.90;;;;;;4947831;28;20047;-64
2023/05/02 12:01:29;;;;;;;5.90;1.80;;;8.10;99.90;;;;;;4942422;28;20149;-64
2023/05/02 12:04:09;;;;;;;2.33;1.70;;;8.10;99.90;;;;;;4941975;28;20818;-78
2023/05/02 12:06:36;;;;;;;2.88;1.83;;;8.00;99.90;;;;;;4939659;28;20095;-73
2023/05/02 12:09:08;;;;;;;3.08;1.55;;;7.90;99.90;;;;;;4946233;28;20186;-66
2023/05/02 12:11:37;;;;;;;6.38;2.00;;;7.90;99.90;;;;;;4961805;28;20105;-68
2023/05/02 12:14:05;;;;;;;5.07;1.55;;;7.90;99.90;;;;;;4947916;28;20602;-67
2023/05/02 12:16:32;;;;;;;2.70;1.35;;;7.80;99.90;;;;;;4938807;28;20719;-64
2023/05/02 12:18:59;;;;;;;3.95;1.73;;;8.00;99.90;;;;;;4945948;28;20532;-65
2023/05/02 12:21:31;;;;;;;3.00;2.30;;;7.90;99.90;;;;;;4940251;28;20909;-70
2023/05/02 12:24:00;;;;;;;3.17;1.52;;;7.90;99.90;;;;;;4956296;28;20134;-65
2023/05/02 12:26:32;;;;;;;4.20;1.75;;;7.90;99.90;;;;;;4938473;28;20125;-65
2023/05/02 12:29:01;;;;;;;4.90;1.63;;;8.00;99.90;;;;;;4946984;28;20061;-66
2023/05/02 12:31:30;;;;;;;2.03;1.55;;;8.00;99.90;;;;;;4942399;28;20057;-67
2023/05/02 12:33:58;;;;;;;4.72;1.50;;;8.20;99.90;;;;;;4940857;28;20056;-71
2023/05/02 12:36:29;;;;;;;2.53;1.63;;;8.30;99.90;;;;;;4939704;28;20082;-74
2023/05/02 12:38:58;;;;;;;1.70;1.40;;;8.40;99.90;;;;;;4945059;28;20561;-65
2023/05/02 12:41:36;;;;;;;2.92;1.75;;;8.20;99.90;;;;;;4948854;28;20047;-65
2023/05/02 12:44:04;;;;;;;3.50;2.63;;;8.30;99.90;;;;;;4943726;28;20097;-67
2023/05/02 12:46:31;;;;;;;17.38;2.45;;;8.10;99.90;;;;;;4937593;28;20063;-64
2023/05/02 12:49:10;;;;;;;3.55;1.80;;;8.40;99.90;;;;;;4939982;28;20051;-64
2023/05/02 12:51:38;;;;;;;1.55;1.45;;;8.50;99.90;;;;;;4947536;28;20558;-63
2023/05/02 12:54:06;;;;;;;3.63;1.40;;;8.70;99.90;;;;;;4940592;28;20081;-65
2023/05/02 12:56:39;;;;;;;5.25;1.73;;;8.80;99.90;;;;;;4944656;28;20059;-64
2023/05/02 12:59:07;;;;;;;2.50;1.67;;;9.00;99.90;;;;;;4950083;28;20523;-63
2023/05/02 13:01:34;;;;;;;2.83;1.45;;;9.10;99.90;;;;;;4940723;28;20569;-64
2023/05/02 13:04:02;;;;;;;2.45;0.95;;;8.90;99.90;;;;;;4947545;28;20062;-66
2023/05/02 13:06:30;;;;;;;2.00;0.98;;;9.00;99.90;;;;;;4925304;28;20098;-67
2023/05/02 13:08:57;;;;;;;3.13;1.45;;;8.90;99.90;;;;;;4945295;28;20501;-71
2023/05/02 13:11:24;;;;;;;1.80;1.20;;;8.70;99.90;;;;;;4942790;28;20421;-68